createdAt,value
2022-10-17T00:00:12.517Z,23.09
2022-10-17T00:01:12.644Z,23.07
2022-10-17T00:02:12.573Z,23.11
2022-10-17T00:03:12.611Z,23.06
2022-10-17T00:04:12.940Z,23.07
2022-10-17T00:05:12.668Z,23.07
2022-10-17T00:06:12.700Z,23.09
2022-10-17T00:07:12.732Z,23.07
2022-10-17T00:08:12.770Z,22.99
2022-10-17T00:09:12.813Z,23.09
2022-10-17T00:10:12.837Z,23.01
2022-10-17T00:11:13.161Z,23.04
2022-10-17T00:12:12.901Z,23.07
2022-10-17T00:13:12.930Z,22.99
2022-10-17T00:14:12.964Z,23.06
2022-10-17T00:15:13.009Z,23.12
2022-10-17T00:16:13.019Z,22.99
2022-10-17T00:17:13.059Z,23.06
2022-10-17T00:18:13.430Z,23.12
2022-10-17T00:19:13.113Z,23.04
2022-10-17T00:20:13.148Z,23.01
2022-10-17T00:21:13.178Z,23.07
2022-10-17T00:22:13.216Z,23.07
2022-10-17T00:23:13.243Z,23.06
2022-10-17T00:24:13.273Z,23.00
2022-10-17T00:25:13.608Z,23.09
2022-10-17T00:26:13.339Z,23.03
2022-10-17T00:27:13.369Z,23.07
2022-10-17T00:28:13.404Z,23.07
2022-10-17T00:29:13.430Z,23.11
2022-10-17T00:30:13.467Z,23.00
2022-10-17T00:31:13.513Z,23.04
2022-10-17T00:32:13.828Z,23.09
2022-10-17T00:33:13.565Z,23.04
2022-10-17T00:34:13.592Z,23.04
2022-10-17T00:35:13.623Z,23.11
2022-10-17T00:36:13.657Z,22.99
2022-10-17T00:37:13.687Z,23.12
2022-10-17T00:38:13.723Z,23.11
2022-10-17T00:39:14.076Z,23.11
2022-10-17T00:40:13.780Z,23.11
2022-10-17T00:41:13.816Z,23.14
2022-10-17T00:42:13.847Z,22.99
2022-10-17T00:43:13.876Z,23.07
2022-10-17T00:44:13.913Z,23.14
2022-10-17T00:45:13.940Z,23.09
2022-10-17T00:46:14.282Z,23.04
2022-10-17T00:47:14.023Z,23.04
2022-10-17T00:48:14.043Z,23.07
2022-10-17T00:49:14.077Z,23.03
2022-10-17T00:50:14.102Z,23.14
2022-10-17T00:51:14.143Z,23.07
2022-10-17T00:52:14.163Z,23.04
2022-10-17T00:53:14.495Z,23.14
2022-10-17T00:54:14.226Z,23.09
2022-10-17T00:55:14.257Z,23.15
2022-10-17T00:56:14.293Z,23.03
2022-10-17T00:57:14.325Z,23.16
2022-10-17T00:58:14.353Z,23.12
2022-10-17T00:59:14.386Z,23.04
2022-10-17T01:00:14.723Z,23.11
2022-10-17T01:01:14.567Z,23.07
2022-10-17T01:02:14.482Z,23.07
2022-10-17T01:03:14.531Z,23.09
2022-10-17T01:04:14.546Z,23.14
2022-10-17T01:05:14.576Z,23.16
2022-10-17T01:06:14.659Z,23.15
2022-10-17T01:07:14.951Z,23.09
2022-10-17T01:08:15.893Z,23.11
2022-10-17T01:09:14.705Z,23.11
2022-10-17T01:10:14.800Z,23.01
2022-10-17T01:11:14.786Z,23.14
2022-10-17T01:12:14.802Z,23.09
2022-10-17T01:13:14.835Z,23.09
2022-10-17T01:14:15.168Z,23.04
2022-10-17T01:15:14.896Z,23.03
2022-10-17T01:16:14.930Z,23.14
2022-10-17T01:17:14.955Z,23.09
2022-10-17T01:18:14.994Z,23.06
2022-10-17T01:19:15.108Z,23.09
2022-10-17T01:20:15.061Z,23.04
2022-10-17T01:21:15.384Z,23.06
2022-10-17T01:22:15.120Z,22.99
2022-10-17T01:23:15.159Z,23.12
2022-10-17T01:24:15.188Z,23.06
2022-10-17T01:25:15.213Z,23.07
2022-10-17T01:27:15.579Z,23.07
2022-10-17T01:28:15.309Z,23.04
2022-10-17T01:29:15.344Z,23.06
2022-10-17T01:30:15.370Z,23.11
2022-10-17T01:31:15.406Z,23.04
2022-10-17T01:32:15.439Z,23.16
2022-10-17T01:33:15.777Z,23.06
2022-10-17T01:34:15.499Z,23.11
2022-10-17T01:35:15.548Z,23.04
2022-10-17T01:36:15.567Z,23.06
2022-10-17T01:37:15.595Z,23.09
2022-10-17T01:38:15.626Z,23.04
2022-10-17T01:39:15.964Z,23.09
2022-10-17T01:40:15.690Z,23.14
2022-10-17T01:41:15.724Z,23.11
2022-10-17T01:42:15.755Z,23.03
2022-10-17T01:43:15.800Z,23.04
2022-10-17T01:44:15.816Z,23.18
2022-10-17T01:45:15.854Z,23.04
2022-10-17T01:46:16.187Z,23.09
2022-10-17T01:47:15.913Z,23.14
2022-10-17T01:48:15.943Z,23.06
2022-10-17T01:49:15.978Z,23.01
2022-10-17T01:50:16.022Z,23.03
2022-10-17T01:51:16.063Z,23.18
2022-10-17T01:52:16.087Z,23.11
2022-10-17T01:53:16.405Z,23.15
2022-10-17T01:54:16.147Z,23.09
2022-10-17T01:55:16.168Z,23.04
2022-10-17T01:56:16.196Z,23.06
2022-10-17T01:57:16.229Z,22.99
2022-10-17T01:58:16.263Z,23.07
2022-10-17T01:59:16.299Z,23.07
2022-10-17T02:00:16.630Z,23.09
2022-10-17T02:01:16.427Z,23.07
2022-10-17T02:02:16.392Z,23.03
2022-10-17T02:03:16.426Z,23.11
2022-10-17T02:04:16.462Z,23.06
2022-10-17T02:05:16.485Z,23.01
2022-10-17T02:06:16.518Z,23.09
2022-10-17T02:07:16.869Z,23.06
2022-10-17T02:08:16.580Z,23.06
2022-10-17T02:09:16.615Z,23.11
2022-10-17T02:10:16.645Z,23.04
2022-10-17T02:11:16.689Z,23.04
2022-10-17T02:12:16.713Z,23.06
2022-10-17T02:13:16.744Z,23.07
2022-10-17T02:14:17.127Z,23.09
2022-10-17T02:15:16.861Z,23.04
2022-10-17T02:16:16.833Z,23.00
2022-10-17T02:18:16.904Z,23.12
2022-10-17T02:19:16.937Z,23.01
2022-10-17T02:20:16.968Z,23.04
2022-10-17T02:21:17.300Z,23.07
2022-10-17T02:22:17.028Z,22.99
2022-10-17T02:24:17.086Z,23.09
2022-10-17T02:25:17.138Z,23.07
2022-10-17T02:26:17.159Z,23.07
2022-10-17T02:27:17.184Z,23.09
2022-10-17T02:28:17.522Z,23.11
2022-10-17T02:29:17.245Z,23.09
2022-10-17T02:30:17.284Z,23.06
2022-10-17T02:31:17.309Z,23.11
2022-10-17T02:32:17.431Z,23.11
2022-10-17T02:33:17.379Z,23.11
2022-10-17T02:34:17.406Z,23.09
2022-10-17T02:35:17.744Z,23.09
2022-10-17T02:36:17.478Z,23.09
2022-10-17T02:37:17.505Z,23.06
2022-10-17T02:38:17.534Z,23.07
2022-10-17T02:39:17.584Z,23.03
2022-10-17T02:40:17.597Z,23.09
2022-10-17T02:41:17.700Z,23.09
2022-10-17T02:42:17.961Z,23.09
2022-10-17T02:43:17.690Z,23.03
2022-10-17T02:44:17.742Z,23.01
2022-10-17T02:45:17.752Z,23.07
2022-10-17T02:46:17.787Z,23.09
2022-10-17T02:47:17.857Z,23.04
2022-10-17T02:48:17.856Z,22.99
2022-10-17T02:49:18.181Z,23.06
2022-10-17T02:50:17.990Z,23.12
2022-10-17T02:51:17.952Z,23.04
2022-10-17T02:52:17.978Z,23.00
2022-10-17T02:53:18.008Z,22.97
2022-10-17T02:54:18.043Z,23.03
2022-10-17T02:55:18.098Z,23.07
2022-10-17T02:56:18.405Z,23.04
2022-10-17T02:57:18.136Z,23.06
2022-10-17T02:58:18.168Z,23.04
2022-10-17T02:59:18.206Z,23.01
2022-10-17T03:00:18.231Z,23.11
2022-10-17T03:01:18.324Z,22.97
2022-10-17T03:02:18.297Z,22.99
2022-10-17T03:03:18.628Z,23.06
2022-10-17T03:04:18.361Z,23.04
2022-10-17T03:05:18.395Z,23.04
2022-10-17T03:06:18.425Z,23.03
2022-10-17T03:07:18.458Z,23.12
2022-10-17T03:08:18.497Z,22.97
2022-10-17T03:09:18.850Z,23.01
2022-10-17T03:10:18.551Z,23.03
2022-10-17T03:11:18.603Z,23.01
2022-10-17T03:12:18.616Z,23.11
2022-10-17T03:13:18.653Z,23.01
2022-10-17T03:14:18.682Z,23.00
2022-10-17T03:15:19.011Z,23.01
2022-10-17T03:16:18.738Z,23.07
2022-10-17T03:17:18.770Z,23.04
2022-10-17T03:18:18.808Z,23.03
2022-10-17T03:19:18.871Z,23.00
2022-10-17T03:20:18.893Z,23.06
2022-10-17T03:21:19.198Z,23.04
2022-10-17T03:22:18.936Z,23.01
2022-10-17T03:23:18.966Z,23.04
2022-10-17T03:24:18.999Z,23.00
2022-10-17T03:25:19.028Z,23.09
2022-10-17T03:26:19.057Z,22.99
2022-10-17T03:27:19.115Z,23.00
2022-10-17T03:28:19.423Z,23.01
2022-10-17T03:29:19.152Z,23.01
2022-10-17T03:30:19.190Z,22.97
2022-10-17T03:31:19.223Z,23.09
2022-10-17T03:32:19.253Z,23.01
2022-10-17T03:33:19.283Z,23.11
2022-10-17T03:34:19.317Z,23.00
2022-10-17T03:35:19.642Z,22.96
2022-10-17T03:36:19.375Z,23.04
2022-10-17T03:37:19.406Z,22.97
2022-10-17T03:38:19.439Z,23.01
2022-10-17T03:39:19.473Z,23.00
2022-10-17T03:40:19.504Z,23.03
2022-10-17T03:41:19.535Z,22.99
2022-10-17T03:42:19.866Z,23.06
2022-10-17T03:43:19.614Z,22.96
2022-10-17T03:44:19.627Z,23.07
2022-10-17T03:45:19.659Z,23.07
2022-10-17T03:46:19.700Z,22.96
2022-10-17T03:47:19.725Z,23.04
2022-10-17T03:48:19.788Z,22.97
2022-10-17T03:49:20.091Z,22.97
2022-10-17T03:50:19.898Z,23.03
2022-10-17T03:51:19.858Z,23.03
2022-10-17T03:52:19.885Z,22.99
2022-10-17T03:53:19.912Z,22.97
2022-10-17T03:54:19.946Z,23.00
2022-10-17T03:55:19.979Z,23.00
2022-10-17T03:56:20.311Z,23.00
2022-10-17T03:57:20.045Z,23.01
2022-10-17T03:58:20.076Z,23.03
2022-10-17T03:59:20.125Z,22.93
2022-10-17T04:00:20.136Z,23.00
2022-10-17T04:01:20.234Z,23.04
2022-10-17T04:02:20.201Z,23.04
2022-10-17T04:03:20.536Z,23.01
2022-10-17T04:04:20.262Z,22.97
2022-10-17T04:05:20.293Z,22.93
2022-10-17T04:06:20.328Z,22.96
2022-10-17T04:07:20.401Z,23.00
2022-10-17T04:08:20.390Z,23.04
2022-10-17T04:09:20.421Z,23.04
2022-10-17T04:10:20.754Z,23.00
2022-10-17T04:11:20.488Z,23.00
2022-10-17T04:12:20.519Z,23.04
2022-10-17T04:13:20.568Z,22.94
2022-10-17T04:15:20.631Z,23.06
2022-10-17T04:16:20.647Z,23.03
2022-10-17T04:17:20.975Z,23.00
2022-10-17T04:18:20.710Z,23.06
2022-10-17T04:19:20.742Z,23.04
2022-10-17T04:20:20.835Z,22.97
2022-10-17T04:21:20.801Z,22.97
2022-10-17T04:22:20.841Z,23.01
2022-10-17T04:23:20.868Z,22.99
2022-10-17T04:24:21.210Z,22.97
2022-10-17T04:25:20.930Z,23.00
2022-10-17T04:26:20.965Z,23.03
2022-10-17T04:27:20.992Z,23.03
2022-10-17T04:28:21.276Z,22.97
2022-10-17T04:29:21.057Z,23.04
2022-10-17T04:30:21.091Z,22.94
2022-10-17T04:31:21.439Z,23.03
2022-10-17T04:32:21.165Z,23.04
2022-10-17T04:33:21.186Z,23.01
2022-10-17T04:34:21.218Z,23.06
2022-10-17T04:35:21.252Z,23.06
2022-10-17T04:36:21.276Z,22.99
2022-10-17T04:37:21.315Z,22.99
2022-10-17T04:38:26.187Z,23.00
2022-10-17T04:40:21.407Z,22.99
2022-10-17T04:41:21.438Z,22.94
2022-10-17T04:42:21.474Z,22.97
2022-10-17T04:44:21.541Z,23.00
2022-10-17T04:45:21.880Z,23.01
2022-10-17T04:46:21.606Z,23.00
2022-10-17T04:47:21.648Z,23.01
2022-10-17T04:48:21.661Z,23.07
2022-10-17T04:49:21.701Z,22.99
2022-10-17T04:50:21.732Z,23.03
2022-10-17T04:51:24.453Z,23.01
2022-10-17T04:52:22.090Z,23.01
2022-10-17T04:53:21.815Z,23.09
2022-10-17T04:54:21.852Z,23.00
2022-10-17T04:55:21.884Z,23.01
2022-10-17T04:56:21.913Z,23.09
2022-10-17T04:57:21.998Z,22.99
2022-10-17T04:58:22.282Z,23.01
2022-10-17T04:59:22.011Z,22.99
2022-10-17T05:00:22.045Z,23.00
2022-10-17T05:01:22.104Z,23.01
2022-10-17T05:02:22.105Z,23.01
2022-10-17T05:03:22.156Z,23.01
2022-10-17T05:04:24.776Z,23.01
2022-10-17T05:05:22.202Z,23.09
2022-10-17T05:06:22.243Z,23.01
2022-10-17T05:07:22.261Z,22.99
2022-10-17T05:08:22.350Z,23.00
2022-10-17T05:09:22.325Z,22.99
2022-10-17T05:10:22.668Z,23.01
2022-10-17T05:11:22.387Z,23.04
2022-10-17T05:12:22.422Z,23.01
2022-10-17T05:13:22.459Z,22.97
2022-10-17T05:14:22.485Z,23.01
2022-10-17T05:15:22.516Z,23.09
2022-10-17T05:16:22.550Z,23.04
2022-10-17T05:17:22.879Z,23.01
2022-10-17T05:18:22.693Z,23.00
2022-10-17T05:19:22.664Z,23.03
2022-10-17T05:20:22.676Z,22.94
2022-10-17T05:21:22.801Z,23.01
2022-10-17T05:22:22.744Z,23.04
2022-10-17T05:23:22.775Z,23.01
2022-10-17T05:24:23.105Z,23.01
2022-10-17T05:25:22.845Z,23.03
2022-10-17T05:26:22.875Z,23.06
2022-10-17T05:27:22.909Z,23.04
2022-10-17T05:28:23.002Z,23.07
2022-10-17T05:29:22.986Z,23.03
2022-10-17T05:30:23.032Z,23.03
2022-10-17T05:31:23.327Z,23.03
2022-10-17T05:32:23.072Z,23.12
2022-10-17T05:33:23.095Z,23.04
2022-10-17T05:34:23.123Z,23.03
2022-10-17T05:35:23.172Z,23.00
2022-10-17T05:36:23.201Z,23.06
2022-10-17T05:37:23.285Z,23.04
2022-10-17T05:38:23.551Z,23.06
2022-10-17T05:39:23.277Z,23.01
2022-10-17T05:40:23.313Z,23.01
2022-10-17T05:41:23.347Z,22.96
2022-10-17T05:42:23.455Z,23.00
2022-10-17T05:43:23.403Z,23.00
2022-10-17T05:44:23.458Z,23.03
2022-10-17T05:45:23.835Z,23.00
2022-10-17T05:46:23.504Z,23.00
2022-10-17T05:47:23.535Z,23.03
2022-10-17T05:48:23.566Z,23.01
2022-10-17T05:49:39.694Z,23.04
2022-10-17T05:50:23.680Z,22.99
2022-10-17T05:51:23.725Z,23.01
2022-10-17T05:52:24.029Z,23.04
2022-10-17T05:53:23.810Z,23.04
2022-10-17T05:54:23.766Z,23.00
2022-10-17T05:55:23.926Z,23.04
2022-10-17T05:56:23.945Z,23.03
2022-10-17T05:57:24.331Z,23.01
2022-10-17T05:58:45.376Z,23.04
2022-10-17T05:59:23.932Z,23.03
2022-10-17T06:00:23.978Z,23.06
2022-10-17T06:01:24.035Z,23.03
2022-10-17T06:02:24.093Z,23.01
2022-10-17T06:03:24.162Z,23.01
2022-10-17T06:04:24.150Z,23.01
2022-10-17T06:05:24.456Z,22.97
2022-10-17T06:06:24.230Z,22.97
2022-10-17T06:07:24.195Z,23.07
2022-10-17T06:08:24.243Z,23.04
2022-10-17T06:09:24.249Z,22.99
2022-10-17T06:10:24.271Z,23.04
2022-10-17T06:11:24.297Z,23.00
2022-10-17T06:13:24.677Z,23.06
2022-10-17T06:14:24.389Z,23.01
2022-10-17T06:15:24.429Z,23.01
2022-10-17T06:16:24.454Z,23.04
2022-10-17T06:17:24.513Z,23.04
2022-10-17T06:18:24.518Z,23.09
2022-10-17T06:19:24.553Z,23.04
2022-10-17T06:20:24.889Z,23.04
2022-10-17T06:21:24.614Z,23.04
2022-10-17T06:22:24.650Z,23.06
2022-10-17T06:23:24.707Z,23.04
2022-10-17T06:24:24.714Z,23.00
2022-10-17T06:25:24.767Z,23.14
2022-10-17T06:26:24.778Z,23.12
2022-10-17T06:27:25.108Z,23.09
2022-10-17T06:28:24.879Z,23.09
2022-10-17T06:29:24.902Z,23.12
2022-10-17T06:30:24.904Z,23.12
2022-10-17T06:31:24.937Z,23.06
2022-10-17T06:32:24.969Z,23.07
2022-10-17T06:33:25.005Z,23.15
2022-10-17T06:34:25.331Z,23.06
2022-10-17T06:35:25.079Z,23.04
2022-10-17T06:36:25.092Z,23.07
2022-10-17T06:37:25.124Z,23.16
2022-10-17T06:38:25.160Z,23.07
2022-10-17T06:39:25.205Z,23.19
2022-10-17T06:40:25.217Z,23.16
2022-10-17T06:41:25.560Z,23.04
2022-10-17T06:42:25.280Z,23.09
2022-10-17T06:43:27.800Z,23.16
2022-10-17T06:44:25.351Z,23.07
2022-10-17T06:45:25.382Z,23.06
2022-10-17T06:46:25.409Z,23.09
2022-10-17T06:47:25.767Z,23.09
2022-10-17T06:48:25.477Z,23.04
2022-10-17T06:49:25.505Z,23.06
2022-10-17T06:50:25.598Z,23.09
2022-10-17T06:51:25.579Z,23.09
2022-10-17T06:52:25.605Z,23.11
2022-10-17T06:53:25.943Z,23.14
2022-10-17T06:54:25.664Z,23.19
2022-10-17T06:55:25.995Z,23.14
2022-10-17T06:57:26.309Z,23.18
2022-10-17T06:58:26.202Z,23.11
2022-10-17T06:59:26.581Z,23.15
2022-10-17T07:00:26.196Z,23.16
2022-10-17T07:01:25.886Z,23.15
2022-10-17T07:02:25.988Z,23.15
2022-10-17T07:03:25.951Z,23.21
2022-10-17T07:04:25.985Z,23.22
2022-10-17T07:05:26.015Z,23.26
2022-10-17T07:06:27.000Z,23.26
2022-10-17T07:07:26.213Z,23.25
2022-10-17T07:08:26.124Z,23.23
2022-10-17T07:09:26.140Z,23.26
2022-10-17T07:10:26.186Z,23.26
2022-10-17T07:11:26.229Z,23.26
2022-10-17T07:12:26.243Z,23.31
2022-10-17T07:13:26.570Z,23.25
2022-10-17T07:14:26.306Z,23.22
2022-10-17T07:15:26.332Z,23.29
2022-10-17T07:16:26.369Z,23.35
2022-10-17T07:17:26.489Z,23.29
2022-10-17T07:18:26.434Z,23.35
2022-10-17T07:19:26.545Z,23.29
2022-10-17T07:20:26.798Z,23.34
2022-10-17T07:21:26.547Z,23.31
2022-10-17T07:22:26.562Z,23.31
2022-10-17T07:23:26.593Z,23.37
2022-10-17T07:24:26.631Z,23.35
2022-10-17T07:25:26.655Z,23.31
2022-10-17T07:26:26.688Z,23.42
2022-10-17T07:27:27.288Z,23.32
2022-10-17T07:28:26.820Z,23.35
2022-10-17T07:29:26.784Z,23.38
2022-10-17T07:30:26.865Z,23.42
2022-10-17T07:31:26.846Z,23.34
2022-10-17T07:32:26.884Z,23.44
2022-10-17T07:33:26.961Z,23.44
2022-10-17T07:34:27.248Z,23.44
2022-10-17T07:35:26.974Z,23.44
2022-10-17T07:36:27.005Z,23.44
2022-10-17T07:37:27.541Z,23.47
2022-10-17T07:38:27.073Z,23.44
2022-10-17T07:39:27.098Z,23.42
2022-10-17T07:40:27.139Z,23.47
2022-10-17T07:41:27.467Z,23.44
2022-10-17T07:42:27.239Z,23.44
2022-10-17T07:43:27.330Z,23.50
2022-10-17T07:44:27.264Z,23.52
2022-10-17T07:45:27.294Z,23.52
2022-10-17T07:46:27.331Z,23.56
2022-10-17T07:47:27.763Z,23.52
2022-10-17T07:48:27.726Z,23.53
2022-10-17T07:49:27.424Z,23.44
2022-10-17T07:50:27.815Z,23.56
2022-10-17T07:51:27.877Z,23.56
2022-10-17T07:52:27.835Z,23.59
2022-10-17T07:54:27.894Z,23.56
2022-10-17T07:55:27.622Z,23.60
2022-10-17T07:56:27.649Z,23.57
2022-10-17T07:57:27.763Z,23.60
2022-10-17T07:58:27.712Z,23.67
2022-10-17T07:59:27.768Z,23.60
2022-10-17T08:00:27.775Z,23.59
2022-10-17T08:01:28.119Z,23.56
2022-10-17T08:02:28.279Z,23.63
2022-10-17T08:03:27.873Z,23.59
2022-10-17T08:04:27.916Z,23.60
2022-10-17T08:05:27.941Z,23.57
2022-10-17T08:06:27.970Z,23.64
2022-10-17T08:07:29.485Z,23.67
2022-10-17T08:08:28.037Z,23.59
2022-10-17T08:09:28.069Z,23.62
2022-10-17T08:10:28.114Z,23.68
2022-10-17T08:11:28.137Z,23.62
2022-10-17T08:12:28.570Z,23.62
2022-10-17T08:13:28.496Z,23.69
2022-10-17T08:14:28.225Z,23.69
2022-10-17T08:15:31.754Z,23.64
2022-10-17T08:16:28.305Z,23.69
2022-10-17T08:18:28.362Z,23.69
2022-10-17T08:19:28.687Z,23.77
2022-10-17T08:20:28.423Z,23.64
2022-10-17T08:21:28.455Z,23.71
2022-10-17T08:22:28.766Z,23.72
2022-10-17T08:23:28.513Z,23.74
2022-10-17T08:24:28.548Z,23.77
2022-10-17T08:25:28.585Z,23.74
2022-10-17T08:26:28.919Z,23.77
2022-10-17T08:27:28.650Z,23.79
2022-10-17T08:28:28.806Z,23.77
2022-10-17T08:29:28.726Z,23.72
2022-10-17T08:30:28.745Z,23.77
2022-10-17T08:31:28.793Z,23.77
2022-10-17T08:32:29.080Z,23.77
2022-10-17T08:33:29.137Z,23.86
2022-10-17T08:34:28.874Z,23.89
2022-10-17T08:35:28.909Z,23.84
2022-10-17T08:36:28.939Z,23.87
2022-10-17T08:37:29.412Z,23.90
2022-10-17T08:38:30.058Z,23.84
2022-10-17T08:39:29.037Z,23.87
2022-10-17T08:40:29.365Z,23.89
2022-10-17T08:41:29.099Z,23.93
2022-10-17T08:42:29.132Z,23.92
2022-10-17T08:43:33.309Z,23.92
2022-10-17T08:44:29.208Z,23.92
2022-10-17T08:45:29.232Z,23.86
2022-10-17T08:46:29.262Z,23.92
2022-10-17T08:47:29.858Z,23.89
2022-10-17T08:48:29.326Z,23.89
2022-10-17T08:49:29.367Z,23.81
2022-10-17T08:50:29.392Z,23.90
2022-10-17T08:51:29.427Z,23.90
2022-10-17T08:52:29.512Z,23.87
2022-10-17T08:53:29.499Z,23.92
2022-10-17T08:54:29.827Z,23.81
2022-10-17T08:55:29.949Z,23.93
2022-10-17T08:56:44.564Z,23.92
2022-10-17T08:57:29.982Z,23.89
2022-10-17T08:58:29.657Z,23.99
2022-10-17T08:59:29.695Z,23.94
2022-10-17T09:00:29.716Z,23.96
2022-10-17T09:01:30.051Z,24.00
2022-10-17T09:02:29.850Z,23.96
2022-10-17T09:03:29.941Z,23.97
2022-10-17T09:04:29.852Z,23.97
2022-10-17T09:05:29.891Z,24.06
2022-10-17T09:06:29.948Z,24.06
2022-10-17T09:07:30.305Z,24.06
2022-10-17T09:08:30.281Z,24.02
2022-10-17T09:09:30.017Z,24.04
2022-10-17T09:10:30.051Z,24.00
2022-10-17T09:11:30.100Z,24.05
2022-10-17T09:12:30.498Z,24.12
2022-10-17T09:13:30.185Z,24.04
2022-10-17T09:14:30.181Z,24.04
2022-10-17T09:15:30.510Z,24.05
2022-10-17T09:16:30.287Z,23.99
2022-10-17T09:17:30.809Z,24.09
2022-10-17T09:18:30.316Z,24.11
2022-10-17T09:19:30.365Z,24.09
2022-10-17T09:20:30.383Z,24.02
2022-10-17T09:21:30.411Z,24.08
2022-10-17T09:22:30.743Z,24.15
2022-10-17T09:23:30.473Z,24.05
2022-10-17T09:24:30.531Z,24.08
2022-10-17T09:25:30.555Z,24.04
2022-10-17T09:26:30.576Z,24.18
2022-10-17T09:27:31.124Z,24.11
2022-10-17T09:28:30.735Z,24.16
2022-10-17T09:29:36.041Z,24.18
2022-10-17T09:30:44.710Z,24.11
2022-10-17T09:31:30.741Z,24.16
2022-10-17T09:32:31.113Z,24.16
2022-10-17T09:33:53.321Z,24.15
2022-10-17T09:34:30.837Z,24.19
2022-10-17T09:35:30.900Z,24.23
2022-10-17T09:36:31.201Z,24.15
2022-10-17T09:37:30.939Z,24.30
2022-10-17T09:38:30.978Z,24.26
2022-10-17T09:39:31.013Z,24.23
2022-10-17T09:40:31.047Z,24.26
2022-10-17T09:41:47.414Z,24.24
2022-10-17T09:42:31.627Z,24.18
2022-10-17T09:43:31.445Z,24.21
2022-10-17T09:44:31.165Z,24.21
2022-10-17T09:45:31.198Z,24.19
2022-10-17T09:46:31.364Z,24.18
2022-10-17T09:47:31.269Z,24.21
2022-10-17T09:48:31.304Z,24.23
2022-10-17T09:49:31.649Z,24.21
2022-10-17T09:50:31.369Z,24.31
2022-10-17T09:51:31.423Z,24.26
2022-10-17T09:52:31.745Z,24.29
2022-10-17T09:53:31.468Z,24.19
2022-10-17T09:54:31.504Z,24.29
2022-10-17T09:55:31.835Z,24.33
2022-10-17T09:56:31.565Z,24.30
2022-10-17T09:57:31.597Z,24.26
2022-10-17T09:58:31.636Z,24.30
2022-10-17T09:59:31.667Z,24.29
2022-10-17T10:00:31.757Z,24.23
2022-10-17T10:01:32.035Z,24.26
2022-10-17T10:02:32.058Z,24.34
2022-10-17T10:03:31.796Z,24.27
2022-10-17T10:04:46.843Z,24.29
2022-10-17T10:05:31.862Z,24.26
2022-10-17T10:06:31.975Z,24.36
2022-10-17T10:07:31.950Z,24.29
2022-10-17T10:08:32.264Z,24.31
2022-10-17T10:09:33.265Z,24.30
2022-10-17T10:10:32.032Z,24.24
2022-10-17T10:11:32.061Z,24.36
2022-10-17T10:12:32.526Z,24.33
2022-10-17T10:13:32.129Z,24.33
2022-10-17T10:14:32.166Z,24.36
2022-10-17T10:15:33.103Z,24.30
2022-10-17T10:16:32.317Z,24.33
2022-10-17T10:17:32.264Z,24.39
2022-10-17T10:18:32.599Z,24.39
2022-10-17T10:19:32.332Z,24.31
2022-10-17T10:20:32.359Z,24.36
2022-10-17T10:21:32.394Z,24.39
2022-10-17T10:22:33.020Z,24.46
2022-10-17T10:23:32.486Z,24.39
2022-10-17T10:24:32.498Z,24.39
2022-10-17T10:25:32.527Z,24.37
2022-10-17T10:26:32.662Z,24.44
2022-10-17T10:28:32.671Z,24.44
2022-10-17T10:29:32.963Z,24.37
2022-10-17T10:30:36.169Z,24.39
2022-10-17T10:31:32.731Z,24.37
2022-10-17T10:32:32.797Z,24.36
2022-10-17T10:33:32.797Z,24.37
2022-10-17T10:34:32.830Z,24.34
2022-10-17T10:35:32.865Z,24.37
2022-10-17T10:36:32.916Z,24.37
2022-10-17T10:37:33.313Z,24.44
2022-10-17T10:38:32.969Z,24.34
2022-10-17T10:39:33.016Z,24.39
2022-10-17T10:40:33.026Z,24.44
2022-10-17T10:41:33.067Z,24.46
2022-10-17T10:42:33.399Z,24.37
2022-10-17T10:43:33.128Z,24.42
2022-10-17T10:44:33.162Z,24.46
2022-10-17T10:45:47.634Z,24.41
2022-10-17T10:46:33.230Z,24.41
2022-10-17T10:47:33.581Z,24.45
2022-10-17T10:48:33.331Z,24.42
2022-10-17T10:49:33.633Z,24.41
2022-10-17T10:50:33.362Z,24.46
2022-10-17T10:51:33.397Z,24.46
2022-10-17T10:52:33.437Z,24.46
2022-10-17T10:53:35.437Z,24.44
2022-10-17T10:54:33.559Z,24.48
2022-10-17T10:55:33.556Z,24.42
2022-10-17T10:56:33.860Z,24.42
2022-10-17T10:57:33.601Z,24.46
2022-10-17T10:58:33.686Z,24.42
2022-10-17T10:59:33.666Z,24.42
2022-10-17T11:00:33.806Z,24.44
2022-10-17T11:01:33.736Z,24.41
2022-10-17T11:02:33.764Z,24.46
2022-10-17T11:03:34.127Z,24.42
2022-10-17T11:04:33.828Z,24.45
2022-10-17T11:05:33.873Z,24.45
2022-10-17T11:06:33.900Z,24.46
2022-10-17T11:07:33.979Z,24.48
2022-10-17T11:08:33.968Z,24.45
2022-10-17T11:09:34.303Z,24.49
2022-10-17T11:10:34.028Z,24.41
2022-10-17T11:11:34.085Z,24.44
2022-10-17T11:12:34.204Z,24.53
2022-10-17T11:13:34.132Z,24.49
2022-10-17T11:14:34.163Z,24.51
2022-10-17T11:15:34.526Z,24.46
2022-10-17T11:16:34.240Z,24.51
2022-10-17T11:17:34.271Z,24.51
2022-10-17T11:18:34.298Z,24.48
2022-10-17T11:19:34.332Z,24.55
2022-10-17T11:20:34.362Z,24.56
2022-10-17T11:21:34.742Z,24.61
2022-10-17T11:22:34.786Z,24.56
2022-10-17T11:23:34.479Z,24.53
2022-10-17T11:24:34.501Z,24.55
2022-10-17T11:25:34.535Z,24.61
2022-10-17T11:26:34.566Z,24.45
2022-10-17T11:27:34.618Z,24.61
2022-10-17T11:28:35.122Z,24.56
2022-10-17T11:29:34.670Z,24.53
2022-10-17T11:30:34.758Z,24.55
2022-10-17T11:31:34.736Z,24.63
2022-10-17T11:32:34.767Z,24.56
2022-10-17T11:33:34.803Z,24.60
2022-10-17T11:34:34.857Z,24.60
2022-10-17T11:35:35.169Z,24.55
2022-10-17T11:36:34.905Z,24.53
2022-10-17T11:37:34.936Z,24.60
2022-10-17T11:38:34.967Z,24.53
2022-10-17T11:39:35.074Z,24.52
2022-10-17T11:40:35.037Z,24.52
2022-10-17T11:41:35.073Z,24.52
2022-10-17T11:42:35.404Z,24.52
2022-10-17T11:43:35.155Z,24.63
2022-10-17T11:44:35.366Z,24.59
2022-10-17T11:45:35.205Z,24.53
2022-10-17T11:46:35.240Z,24.60
2022-10-17T11:47:35.278Z,24.55
2022-10-17T11:48:35.407Z,24.60
2022-10-17T11:49:39.891Z,24.59
2022-10-17T11:53:05.137Z,24.60
2022-10-17T11:53:35.477Z,24.60
2022-10-17T11:54:35.518Z,24.59
2022-10-17T11:55:35.548Z,24.63
2022-10-17T11:56:38.033Z,24.64
2022-10-17T11:57:35.610Z,24.63
2022-10-17T11:58:35.650Z,24.61
2022-10-17T11:59:35.726Z,24.59
2022-10-17T12:00:37.963Z,24.67
2022-10-17T12:01:35.750Z,24.64
2022-10-17T12:02:35.771Z,24.55
2022-10-17T12:03:36.109Z,24.63
2022-10-17T12:04:35.866Z,24.61
2022-10-17T12:05:35.880Z,24.55
2022-10-17T12:06:35.905Z,24.59
2022-10-17T12:07:35.956Z,24.64
2022-10-17T12:08:35.973Z,24.59
2022-10-17T12:09:36.016Z,24.63
2022-10-17T12:10:36.344Z,24.55
2022-10-17T12:11:36.076Z,24.64
2022-10-17T12:12:36.109Z,24.55
2022-10-17T12:13:36.224Z,24.55
2022-10-17T12:14:36.175Z,24.60
2022-10-17T12:15:36.234Z,24.52
2022-10-17T12:16:36.275Z,24.60
2022-10-17T12:17:36.579Z,24.46
2022-10-17T12:18:36.313Z,24.59
2022-10-17T12:19:36.341Z,24.60
2022-10-17T12:20:36.425Z,24.63
2022-10-17T12:21:37.361Z,24.52
2022-10-17T12:22:36.448Z,24.55
2022-10-17T12:23:36.478Z,24.63
2022-10-17T12:24:36.809Z,24.55
2022-10-17T12:25:36.581Z,24.63
2022-10-17T12:26:36.581Z,24.55
2022-10-17T12:27:36.612Z,24.53
2022-10-17T12:28:36.669Z,24.49
2022-10-17T12:29:36.680Z,24.61
2022-10-17T12:30:36.710Z,24.52
2022-10-17T12:31:37.069Z,24.49
2022-10-17T12:33:00.027Z,24.46
2022-10-17T12:33:36.816Z,24.49
2022-10-17T12:34:36.908Z,24.45
2022-10-17T12:35:36.882Z,24.48
2022-10-17T12:36:36.919Z,24.51
2022-10-17T12:37:36.947Z,24.51
2022-10-17T12:38:37.606Z,24.45
2022-10-17T12:39:37.018Z,24.52
2022-10-17T12:40:37.052Z,24.44
2022-10-17T12:42:37.117Z,24.51
2022-10-17T12:43:39.655Z,24.46
2022-10-17T12:44:37.189Z,24.46
2022-10-17T12:45:37.516Z,24.48
2022-10-17T12:46:37.258Z,24.51
2022-10-17T12:47:37.309Z,24.51
2022-10-17T12:48:37.316Z,24.48
2022-10-17T12:49:37.348Z,24.49
2022-10-17T12:50:38.199Z,24.51
2022-10-17T12:51:38.123Z,24.49
2022-10-17T12:52:37.454Z,24.49
2022-10-17T12:53:37.484Z,24.48
2022-10-17T12:54:47.040Z,24.42
2022-10-17T12:55:37.554Z,24.46
2022-10-17T12:56:37.583Z,24.41
2022-10-17T12:57:37.927Z,24.45
2022-10-17T12:58:37.650Z,24.42
2022-10-17T12:59:37.684Z,24.41
2022-10-17T13:00:37.848Z,24.44
2022-10-17T13:01:37.796Z,24.46
2022-10-17T13:02:37.784Z,24.45
2022-10-17T13:03:38.141Z,24.39
2022-10-17T13:04:37.905Z,24.39
2022-10-17T13:05:37.881Z,24.46
2022-10-17T13:06:37.924Z,24.42